Terminal Aerodrome Forecast
Issued by NWS

Home | Current Version | Previous Version | Text Only | Print | Product List | Glossary On
Versions: 1 2 3 4 5 6 7 8 9 10 11 12 13 14 15 16 17 18 19 20 21
000
FTUS44 KLZK 190000 AAA
TAFLLQ
TAF AMD
KLLQ 190049Z 1901/1924 06004KT P6SM OVC005
      TEMPO 1901/1904 SCT005 OVC020
     FM190400 VRB03KT 4SM BR OVC005
      TEMPO 1910/1914 1/2SM FG VV001
     FM191400 23004KT P6SM OVC015
     FM191800 20007KT P6SM VCTS SCT025CB BKN250=

USA.gov is the U.S. government's official web portal to all federal, state and local government web resources and services.